Time;durP1;ratioP1;P1;durP2;ratioP2;P2;SDS_P1;SDS_P2;PMS_P1;PMS_P2;Temp;Humidity;BMP_temperature;BMP_pressure;BME280_temperature;BME280_humidity;BME280_pressure;Samples;Min_cycle;Max_cycle;Signal;HPM_P1;HPM_P2
2022/04/12 00:00:26;;;;;;;22.35;10.57;;;;;;;;;;5060279;28;20044;-70
2022/04/12 00:02:52;;;;;;;28.17;12.15;;;;;;;;;;5058629;28;20036;-70
2022/04/12 00:05:18;;;;;;;21.00;11.15;;;;;;;;;;5059299;28;20049;-70
2022/04/12 00:07:44;;;;;;;19.83;10.55;;;;;;;;;;5051547;28;20045;-70
2022/04/12 00:10:12;;;;;;;24.05;10.73;;;;;;;;;;5060163;28;20078;-70
2022/04/12 00:12:38;;;;;;;25.30;10.63;;;;;;;;;;5069820;28;20484;-70
2022/04/12 00:15:06;;;;;;;22.13;10.68;;;7.80;99.90;;;;;;5071729;28;20055;-70
2022/04/12 00:20:18;;;;;;;25.02;10.85;;;;;;;;;;5061611;28;20505;-70
2022/04/12 00:22:44;;;;;;;25.75;11.48;;;;;;;;;;5070334;28;20043;-70
2022/04/12 00:25:10;;;;;;;21.35;10.70;;;;;;;;;;5065036;28;20060;-70
2022/04/12 00:27:37;;;;;;;28.60;13.40;;;7.70;99.90;;;;;;5056161;28;20060;-70
2022/04/12 00:30:05;;;;;;;20.95;10.90;;;;;;;;;;5071397;28;20040;-70
2022/04/12 00:32:31;;;;;;;28.83;11.13;;;;;;;;;;5067436;28;20511;-70
2022/04/12 00:34:57;;;;;;;22.73;10.80;;;;;;;;;;5049234;28;20037;-70
2022/04/12 00:37:23;;;;;;;21.70;10.85;;;;;;;;;;5064171;28;20040;-70
2022/04/12 00:39:49;;;;;;;23.23;11.38;;;;;;;;;;5052183;28;20045;-70
2022/04/12 00:42:15;;;;;;;23.55;11.73;;;;;;;;;;5055252;28;20083;-70
2022/04/12 00:44:41;;;;;;;22.88;11.27;;;;;;;;;;5058098;28;20028;-70
2022/04/12 00:47:07;;;;;;;24.85;11.88;;;;;;;;;;5064282;28;20081;-70
2022/04/12 00:49:33;;;;;;;21.90;11.35;;;;;;;;;;5045011;28;20488;-70
2022/04/12 00:52:00;;;;;;;19.85;11.13;;;;;;;;;;5072722;28;20040;-70
2022/04/12 00:54:26;;;;;;;22.90;11.57;;;;;;;;;;5058669;28;20048;-70
2022/04/12 00:56:52;;;;;;;27.85;12.35;;;7.50;99.90;;;;;;5062639;28;20037;-70
2022/04/12 00:59:19;;;;;;;23.23;11.65;;;7.40;99.90;;;;;;5072412;28;20079;-70
2022/04/12 01:01:45;;;;;;;31.58;11.38;;;;;;;;;;5057642;28;20075;-70
2022/04/12 01:04:11;;;;;;;26.08;10.82;;;;;;;;;;5067651;28;20116;-70
2022/04/12 01:06:37;;;;;;;26.55;11.55;;;7.50;99.90;;;;;;5058101;28;20080;-70
2022/04/12 01:09:05;;;;;;;24.65;12.70;;;7.40;99.90;;;;;;5054370;28;20125;-70
2022/04/12 01:11:35;;;;;;;25.95;11.35;;;;;;;;;;5066803;28;20048;-70
2022/04/12 01:14:01;;;;;;;24.80;10.60;;;;;;;;;;5065285;28;20064;-70
2022/04/12 01:16:27;;;;;;;23.63;11.18;;;;;;;;;;5067941;28;20037;-70
2022/04/12 01:18:53;;;;;;;19.70;11.15;;;;;;;;;;5066950;28;20040;-70
2022/04/12 01:21:20;;;;;;;24.95;11.23;;;;;;;;;;5062617;28;20065;-70
2022/04/12 01:24:12;;;;;;;24.58;11.20;;;7.30;99.90;;;;;;5054100;28;20037;-70
2022/04/12 01:26:40;;;;;;;32.35;11.70;;;7.40;99.90;;;;;;5054011;28;20044;-70
2022/04/12 01:29:06;;;;;;;20.95;10.65;;;;;;;;;;5054493;28;20049;-70
2022/04/12 01:31:32;;;;;;;20.60;10.60;;;;;;;;;;5068039;28;20072;-70
2022/04/12 01:33:58;;;;;;;20.02;10.65;;;;;;;;;;5054059;28;20040;-70
2022/04/12 01:36:24;;;;;;;25.65;11.98;;;;;;;;;;5058713;28;20052;-70
2022/04/12 01:38:50;;;;;;;25.23;10.75;;;;;;;;;;5072252;28;20496;-70
2022/04/12 01:41:16;;;;;;;22.45;11.43;;;;;;;;;;5065557;28;20040;-70
2022/04/12 01:43:43;;;;;;;22.73;10.73;;;;;;;;;;5053780;28;20044;-70
2022/04/12 01:46:09;;;;;;;23.73;12.07;;;;;;;;;;5059549;28;20041;-70
2022/04/12 01:48:35;;;;;;;26.38;10.77;;;;;;;;;;5071971;28;20033;-70
2022/04/12 01:51:01;;;;;;;19.10;10.77;;;;;;;;;;5068252;28;20443;-70
2022/04/12 01:53:27;;;;;;;20.27;11.32;;;;;;;;;;5053625;28;20505;-70
2022/04/12 01:55:53;;;;;;;22.88;10.65;;;;;;;;;;5056576;28;20048;-70
2022/04/12 01:58:19;;;;;;;26.08;11.65;;;;;;;;;;5057508;28;20091;-70
2022/04/12 02:00:45;;;;;;;21.20;11.45;;;;;;;;;;5058510;28;20086;-70
2022/04/12 02:03:12;;;;;;;21.77;12.10;;;;;;;;;;5085373;28;20481;-70
2022/04/12 02:05:39;;;;;;;24.23;12.02;;;;;;;;;;5067661;28;20041;-70
2022/04/12 02:08:06;;;;;;;26.35;11.52;;;;;;;;;;5054255;28;20040;-70
2022/04/12 02:10:32;;;;;;;22.27;12.57;;;;;;;;;;5054828;28;20041;-70
2022/04/12 02:12:58;;;;;;;27.98;11.75;;;;;;;;;;5067239;28;20036;-70
2022/04/12 02:15:24;;;;;;;24.42;12.20;;;;;;;;;;5070034;28;20523;-70
2022/04/12 02:17:50;;;;;;;27.55;12.90;;;;;;;;;;5068418;28;20032;-70
2022/04/12 02:20:16;;;;;;;28.40;12.93;;;;;;;;;;5071415;28;20158;-70
2022/04/12 02:22:42;;;;;;;31.48;13.48;;;;;;;;;;5060771;28;20033;-70
2022/04/12 02:25:08;;;;;;;27.83;12.98;;;;;;;;;;5053004;28;20044;-70
2022/04/12 02:27:34;;;;;;;26.67;12.20;;;;;;;;;;5067832;28;20049;-70
2022/04/12 02:30:01;;;;;;;26.80;12.60;;;;;;;;;;5070738;28;20036;-70
2022/04/12 02:32:27;;;;;;;30.58;11.80;;;;;;;;;;5060096;28;20055;-70
2022/04/12 02:34:53;;;;;;;23.50;11.98;;;;;;;;;;5053187;28;20028;-70
2022/04/12 02:37:19;;;;;;;28.20;13.40;;;;;;;;;;5062987;28;20469;-70
2022/04/12 02:39:45;;;;;;;25.77;12.80;;;;;;;;;;5052748;28;20447;-70
2022/04/12 02:42:11;;;;;;;26.02;12.65;;;;;;;;;;5068550;28;20419;-70
2022/04/12 02:44:37;;;;;;;29.05;13.02;;;;;;;;;;5070972;28;20495;-70
2022/04/12 02:47:03;;;;;;;25.17;12.88;;;;;;;;;;5067394;28;20461;-70
2022/04/12 02:49:29;;;;;;;24.38;12.45;;;;;;;;;;5069160;28;20052;-70
2022/04/12 02:51:55;;;;;;;26.65;14.35;;;;;;;;;;5067068;28;20032;-70
2022/04/12 02:54:21;;;;;;;24.83;12.35;;;;;;;;;;5084738;28;20045;-70
2022/04/12 02:56:47;;;;;;;24.65;12.77;;;;;;;;;;5065834;28;20439;-70
2022/04/12 02:59:13;;;;;;;26.70;12.88;;;;;;;;;;5070624;28;20439;-70
2022/04/12 03:01:39;;;;;;;30.38;12.88;;;;;;;;;;5065504;28;20374;-70
2022/04/12 03:04:05;;;;;;;36.40;14.15;;;;;;;;;;5069655;28;20040;-70
2022/04/12 03:06:32;;;;;;;32.38;13.32;;;;;;;;;;5065275;28;20053;-70
2022/04/12 03:08:58;;;;;;;27.52;13.88;;;;;;;;;;5068092;28;20037;-70
2022/04/12 03:11:24;;;;;;;25.00;13.57;;;;;;;;;;5064974;28;20049;-70
2022/04/12 03:13:50;;;;;;;29.02;13.35;;;;;;;;;;5067181;28;20124;-70
2022/04/12 03:16:16;;;;;;;33.35;14.73;;;;;;;;;;5060050;28;20536;-70
2022/04/12 03:18:42;;;;;;;29.60;13.10;;;;;;;;;;5040437;28;20538;-70
2022/04/12 03:21:08;;;;;;;31.98;14.52;;;;;;;;;;5053060;28;20033;-70
2022/04/12 03:23:34;;;;;;;27.52;14.75;;;;;;;;;;5052682;28;20065;-70
2022/04/12 03:26:00;;;;;;;27.25;13.30;;;;;;;;;;5052897;28;20037;-70
2022/04/12 03:28:26;;;;;;;33.03;15.15;;;;;;;;;;5063348;28;20036;-70
2022/04/12 03:30:52;;;;;;;33.25;16.08;;;;;;;;;;5061004;28;20053;-70
2022/04/12 03:33:18;;;;;;;36.03;15.18;;;;;;;;;;5061616;28;21449;-70
2022/04/12 03:35:44;;;;;;;31.65;15.77;;;;;;;;;;5068568;28;20085;-70
2022/04/12 03:38:13;;;;;;;35.08;15.50;;;;;;;;;;5060436;28;20032;-70
2022/04/12 03:40:39;;;;;;;32.97;15.10;;;;;;;;;;5057907;28;20048;-70
2022/04/12 03:43:05;;;;;;;32.45;15.55;;;7.50;99.90;;;;;;5063827;28;20102;-70
2022/04/12 03:45:32;;;;;;;27.52;14.45;;;;;;;;;;5069651;28;20040;-70
2022/04/12 03:47:59;;;;;;;29.48;14.80;;;;;;;;;;5065062;28;20040;-70
2022/04/12 03:50:25;;;;;;;32.40;15.02;;;;;;;;;;5068128;28;20377;-70
2022/04/12 03:52:52;;;;;;;32.55;15.48;;;;;;;;;;5057472;28;20067;-70
2022/04/12 03:55:31;;;;;;;31.55;15.05;;;;;;;;;;5051616;28;20123;-70
2022/04/12 03:58:07;;;;;;;31.27;14.70;;;6.70;99.90;;;;;;5061910;28;20468;-70
2022/04/12 04:00:34;;;;;;;31.60;15.35;;;;;;;;;;5053486;28;20119;-70
2022/04/12 04:03:01;;;;;;;28.50;14.65;;;;;;;;;;5059719;28;20044;-70
2022/04/12 04:05:27;;;;;;;30.58;15.63;;;;;;;;;;5051398;28;20044;-70
2022/04/12 04:07:53;;;;;;;35.95;15.77;;;6.50;99.90;;;;;;5055496;28;20413;-70
2022/04/12 04:10:19;;;;;;;27.83;15.23;;;;;;;;;;5052583;28;20110;-70
2022/04/12 04:12:46;;;;;;;36.85;17.33;;;;;;;;;;5059155;28;20037;-70
2022/04/12 04:15:12;;;;;;;33.30;15.93;;;;;;;;;;5051714;28;20371;-70
2022/04/12 04:17:45;;;;;;;34.78;15.60;;;;;;;;;;5052633;28;20099;-70
2022/04/12 04:20:12;;;;;;;31.35;16.42;;;;;;;;;;5056050;28;20086;-70
2022/04/12 04:22:40;;;;;;;37.60;17.30;;;;;;;;;;5066613;28;20084;-70
2022/04/12 04:25:06;;;;;;;32.47;15.98;;;;;;;;;;5069696;28;20131;-70
2022/04/12 04:27:34;;;;;;;31.92;16.30;;;;;;;;;;5043941;28;20052;-70
2022/04/12 04:30:00;;;;;;;33.03;16.40;;;;;;;;;;5063560;28;20041;-70
2022/04/12 04:32:26;;;;;;;32.05;15.63;;;;;;;;;;5052636;28;20079;-70
2022/04/12 04:34:52;;;;;;;32.22;15.43;;;;;;;;;;5051438;28;20098;-70
2022/04/12 04:37:18;;;;;;;31.60;15.80;;;;;;;;;;5051871;28;20044;-70
2022/04/12 04:39:44;;;;;;;29.25;16.80;;;;;;;;;;5056733;28;20128;-70
2022/04/12 04:42:11;;;;;;;30.95;15.80;;;;;;;;;;5056902;28;20376;-70
2022/04/12 04:44:37;;;;;;;34.53;16.63;;;;;;;;;;5066278;28;20044;-70
2022/04/12 04:47:03;;;;;;;32.30;15.73;;;;;;;;;;5062337;28;20060;-70
2022/04/12 04:49:29;;;;;;;32.72;16.67;;;;;;;;;;5065361;28;20125;-70
2022/04/12 04:51:55;;;;;;;33.55;16.98;;;;;;;;;;5069103;28;20044;-70
2022/04/12 04:54:21;;;;;;;31.48;16.73;;;;;;;;;;5055728;28;20036;-70
2022/04/12 04:56:47;;;;;;;33.35;16.35;;;;;;;;;;5053641;28;20029;-70
2022/04/12 04:59:13;;;;;;;31.15;16.83;;;;;;;;;;5056555;28;20124;-70
2022/04/12 05:01:39;;;;;;;32.15;16.52;;;;;;;;;;5054850;28;20116;-70
2022/04/12 05:04:06;;;;;;;30.00;15.65;;;;;;;;;;5064964;28;20082;-70
2022/04/12 05:06:32;;;;;;;36.10;16.35;;;;;;;;;;5081581;28;20136;-70
2022/04/12 05:08:58;;;;;;;33.13;17.40;;;;;;;;;;5062532;28;20053;-71
2022/04/12 05:11:24;;;;;;;35.05;17.10;;;;;;;;;;5054763;28;20037;-71
2022/04/12 05:13:51;;;;;;;34.63;16.60;;;;;;;;;;5062555;28;20071;-72
2022/04/12 05:16:17;;;;;;;33.38;16.40;;;;;;;;;;5060838;28;20072;-72
2022/04/12 05:18:43;;;;;;;39.08;16.02;;;;;;;;;;5057797;28;20045;-71
2022/04/12 05:21:09;;;;;;;35.58;16.73;;;;;;;;;;5068373;28;20497;-72
2022/04/12 05:23:35;;;;;;;32.28;16.08;;;;;;;;;;5066448;28;20036;-71
2022/04/12 05:26:01;;;;;;;36.63;16.85;;;;;;;;;;5068908;28;20139;-72
2022/04/12 05:28:27;;;;;;;34.25;17.45;;;;;;;;;;5060395;28;20552;-72
2022/04/12 05:30:53;;;;;;;33.08;16.42;;;;;;;;;;5060558;28;20473;-72
2022/04/12 05:33:20;;;;;;;33.10;16.77;;;;;;;;;;5055514;28;20040;-72
2022/04/12 05:35:46;;;;;;;33.88;17.30;;;;;;;;;;5070404;28;20036;-72
2022/04/12 05:38:12;;;;;;;32.58;16.83;;;;;;;;;;5070143;28;20036;-72
2022/04/12 05:40:38;;;;;;;33.20;16.98;;;;;;;;;;5065961;28;20083;-72
2022/04/12 05:43:07;;;;;;;29.42;16.00;;;;;;;;;;5060692;28;20107;-72
2022/04/12 05:45:33;;;;;;;35.30;16.35;;;;;;;;;;5053880;28;20114;-72
2022/04/12 05:48:00;;;;;;;39.33;16.45;;;;;;;;;;5054083;28;20091;-72
2022/04/12 05:50:27;;;;;;;32.15;16.30;;;6.90;99.90;;;;;;5068542;28;20139;-72
2022/04/12 05:52:53;;;;;;;32.38;17.52;;;7.00;99.90;;;;;;5062512;28;20042;-72
2022/04/12 05:55:22;;;;;;;33.60;18.27;;;7.30;99.90;;;;;;5063372;28;20122;-71
2022/04/12 05:57:56;;;;;;;36.90;16.90;;;6.90;99.90;;;;;;5059396;28;20056;-72
2022/04/12 06:00:29;;;;;;;34.97;16.60;;;;;;;;;;5065842;28;20040;-71
2022/04/12 06:02:56;;;;;;;33.90;16.73;;;;;;;;;;5068890;28;20041;-72
2022/04/12 06:05:23;;;;;;;39.78;17.25;;;6.90;99.90;;;;;;5067174;28;20374;-72
2022/04/12 06:07:51;;;;;;;34.67;16.45;;;;;;;;;;5071148;28;20045;-72
2022/04/12 06:10:18;;;;;;;32.85;16.25;;;;;;;;;;5064327;28;20056;-72
2022/04/12 06:12:44;;;;;;;31.90;15.93;;;;;;;;;;5059627;28;20124;-73
2022/04/12 06:15:10;;;;;;;33.95;17.08;;;;;;;;;;5058805;28;20032;-73
2022/04/12 06:17:37;;;;;;;35.72;16.85;;;7.40;99.90;;;;;;5064520;28;20052;-73
2022/04/12 06:20:07;;;;;;;33.88;17.88;;;7.10;99.90;;;;;;5064668;28;20123;-73
2022/04/12 06:22:34;;;;;;;34.38;16.70;;;;;;;;;;5056311;28;20120;-73
2022/04/12 06:25:00;;;;;;;31.45;16.45;;;;;;;;;;5061967;28;20032;-73
2022/04/12 06:27:34;;;;;;;33.58;16.13;;;;;;;;;;5065976;28;20139;-73
2022/04/12 06:30:19;;;;;;;34.63;17.13;;;;;;;;;;5060420;28;20384;-73
2022/04/12 06:32:46;;;;;;;34.00;15.82;;;;;;;;;;5063943;28;20049;-73
2022/04/12 06:35:12;;;;;;;28.23;15.73;;;;;;;;;;5050172;28;20127;-73
2022/04/12 06:37:40;;;;;;;32.28;17.35;;;7.50;99.90;;;;;;5069520;28;20048;-72
2022/04/12 06:40:07;;;;;;;32.30;17.08;;;;;;;;;;5065228;28;20045;-72
2022/04/12 06:42:34;;;;;;;32.55;16.23;;;;;;;;;;5052874;28;20055;-72
2022/04/12 06:45:00;;;;;;;37.50;17.65;;;;;;;;;;5057465;28;20036;-72
2022/04/12 06:47:26;;;;;;;31.60;17.08;;;;;;;;;;5059568;28;20555;-72
2022/04/12 06:49:53;;;;;;;29.08;16.13;;;;;;;;;;5068257;28;20040;-72
2022/04/12 06:52:22;;;;;;;36.35;16.20;;;;;;;;;;5070717;28;20045;-72
2022/04/12 06:54:49;;;;;;;35.15;16.33;;;;;;;;;;5065364;28;20041;-72
2022/04/12 06:57:15;;;;;;;27.05;15.48;;;;;;;;;;5052531;28;20028;-73
2022/04/12 06:59:41;;;;;;;34.30;15.90;;;;;;;;;;5065419;28;20433;-73
2022/04/12 07:02:08;;;;;;;34.17;15.77;;;;;;;;;;5038354;28;20041;-73
2022/04/12 07:04:34;;;;;;;32.67;15.93;;;;;;;;;;5052621;28;20047;-72
2022/04/12 07:07:00;;;;;;;31.13;16.05;;;;;;;;;;5056395;28;20128;-72
2022/04/12 07:09:28;;;;;;;30.65;16.10;;;8.10;99.90;;;;;;5053544;28;20041;-72
2022/04/12 07:11:55;;;;;;;28.67;15.98;;;;;;;;;;5066974;28;20036;-73
2022/04/12 07:14:21;;;;;;;31.55;15.77;;;;;;;;;;5070361;28;20168;-71
2022/04/12 07:16:47;;;;;;;33.22;16.60;;;;;;;;;;5067915;28;20043;-71
2022/04/12 07:19:13;;;;;;;31.30;15.40;;;;;;;;;;5055433;28;20401;-71
2022/04/12 07:21:40;;;;;;;33.35;16.48;;;;;;;;;;5063576;28;20048;-71
2022/04/12 07:24:06;;;;;;;30.48;16.75;;;;;;;;;;5068376;28;20045;-72
2022/04/12 07:26:32;;;;;;;29.75;15.55;;;;;;;;;;5056687;28;20045;-72
2022/04/12 07:28:59;;;;;;;30.38;15.75;;;;;;;;;;5052783;28;20489;-72
2022/04/12 07:31:28;;;;;;;32.05;16.60;;;8.50;99.90;;;;;;5062272;28;20040;-72
2022/04/12 07:33:54;;;;;;;30.88;16.38;;;;;;;;;;5068537;28;20036;-72
2022/04/12 07:36:20;;;;;;;32.72;17.00;;;;;;;;;;5059877;28;20040;-72
2022/04/12 07:38:48;;;;;;;38.25;16.58;;;;;;;;;;5051831;28;20037;-72
2022/04/12 07:41:14;;;;;;;30.38;16.65;;;;;;;;;;5061491;28;20048;-72
2022/04/12 07:43:42;;;;;;;34.78;15.73;;;;;;;;;;5062944;28;20043;-72
2022/04/12 07:46:08;;;;;;;31.27;15.90;;;;;;;;;;5065624;28;20132;-72
2022/04/12 07:48:34;;;;;;;29.60;15.25;;;;;;;;;;5061461;28;20472;-72
2022/04/12 07:51:00;;;;;;;34.03;14.95;;;;;;;;;;5055422;28;20051;-72
2022/04/12 07:53:26;;;;;;;29.50;15.20;;;;;;;;;;5056287;28;20060;-72
2022/04/12 07:55:52;;;;;;;32.15;17.17;;;;;;;;;;5067349;28;20052;-72
2022/04/12 07:58:19;;;;;;;26.50;15.43;;;;;;;;;;5066334;28;20036;-72
2022/04/12 08:00:45;;;;;;;30.58;15.20;;;;;;;;;;5052144;28;20047;-72
2022/04/12 08:03:12;;;;;;;33.13;16.05;;;;;;;;;;5053716;28;20048;-71
2022/04/12 08:05:39;;;;;;;29.13;15.90;;;;;;;;;;5065866;28;20098;-73
2022/04/12 08:08:05;;;;;;;32.55;15.60;;;10.50;99.90;;;;;;5068335;28;20040;-72
2022/04/12 08:10:31;;;;;;;31.10;16.48;;;;;;;;;;5068611;28;20043;-72
2022/04/12 08:12:58;;;;;;;31.52;15.63;;;;;;;;;;5067312;28;20036;-72
2022/04/12 08:15:24;;;;;;;29.48;16.02;;;;;;;;;;5059675;28;20051;-71
2022/04/12 08:17:51;;;;;;;30.30;15.48;;;;;;;;;;5070036;28;20099;-71
2022/04/12 08:20:17;;;;;;;30.10;15.50;;;;;;;;;;5071279;28;20083;-71
2022/04/12 08:22:43;;;;;;;33.17;15.93;;;;;;;;;;5071587;28;20032;-71
2022/04/12 08:25:10;;;;;;;32.60;16.17;;;10.60;98.70;;;;;;5071429;28;20046;-71
2022/04/12 08:27:36;;;;;;;29.40;14.95;;;;;;;;;;5054874;28;20037;-71
2022/04/12 08:30:03;;;;;;;28.88;15.68;;;;;;;;;;5071458;28;20049;-72
2022/04/12 08:32:29;;;;;;;31.92;15.05;;;;;;;;;;5071433;28;20070;-72
2022/04/12 08:34:55;;;;;;;28.70;15.88;;;;;;;;;;5072916;28;20044;-72
2022/04/12 08:37:22;;;;;;;28.40;15.15;;;;;;;;;;5075212;28;20048;-71
2022/04/12 08:39:48;;;;;;;28.38;15.20;;;;;;;;;;5058735;28;20040;-72
2022/04/12 08:42:14;;;;;;;32.25;14.80;;;;;;;;;;5075274;28;20126;-71
2022/04/12 08:44:44;;;;;;;31.65;15.57;;;;;;;;;;5074885;28;20041;-71
2022/04/12 08:47:11;;;;;;;35.20;15.60;;;;;;;;;;5060227;28;20029;-71
2022/04/12 08:49:38;;;;;;;35.67;15.77;;;;;;;;;;5068205;28;20388;-71
2022/04/12 08:52:04;;;;;;;69.72;15.27;;;;;;;;;;5072826;28;20040;-71
2022/04/12 08:54:31;;;;;;;32.00;15.00;;;;;;;;;;5055720;28;20041;-70
2022/04/12 08:56:58;;;;;;;27.02;14.40;;;11.50;97.60;;;;;;5054859;28;20041;-71
2022/04/12 08:59:27;;;;;;;31.05;15.15;;;;;;;;;;5050710;28;20123;-71
2022/04/12 09:01:54;;;;;;;25.70;14.80;;;;;;;;;;5072834;28;20037;-71
2022/04/12 09:04:20;;;;;;;29.17;14.45;;;11.90;99.90;;;;;;5061448;28;20051;-71
2022/04/12 09:06:53;;;;;;;29.27;14.43;;;;;;;;;;5074427;28;20067;-71
2022/04/12 09:09:23;;;;;;;28.83;14.43;;;11.60;97.10;;;;;;5062294;28;20040;-71
2022/04/12 09:12:02;;;;;;;29.98;14.48;;;11.80;97.20;;;;;;5057421;28;20036;-71
2022/04/12 09:14:39;;;;;;;27.20;14.43;;;;;;;;;;5071401;28;20033;-70
2022/04/12 09:17:06;;;;;;;24.92;14.45;;;;;;;;;;5062005;28;20036;-70
2022/04/12 09:19:49;;;;;;;29.95;14.00;;;12.20;96.00;;;;;;5058272;28;20032;-71
2022/04/12 09:22:17;;;;;;;33.05;14.77;;;12.60;96.50;;;;;;5059008;28;20090;-70
2022/04/12 09:24:54;;;;;;;25.67;14.10;;;12.60;96.40;;;;;;5072291;28;20032;-70
2022/04/12 09:27:22;;;;;;;28.83;14.43;;;;;;;;;;5056711;28;20099;-70
2022/04/12 09:29:52;;;;;;;30.50;14.50;;;;;;;;;;5059737;28;20044;-71
2022/04/12 09:32:23;;;;;;;31.42;14.00;;;12.70;95.90;;;;;;5057310;28;20044;-71
2022/04/12 09:34:49;;;;;;;25.38;13.50;;;;;;;;;;5071671;28;20051;-70
2022/04/12 09:37:18;;;;;;;30.25;14.75;;;;;;;;;;5068357;28;20495;-71
2022/04/12 09:40:01;;;;;;;27.33;13.55;;;13.10;95.90;;;;;;5068056;28;20037;-70
2022/04/12 09:42:53;;;;;;;24.40;13.57;;;12.80;95.10;;;;;;5044913;28;20040;-70
2022/04/12 09:45:24;;;;;;;27.50;14.25;;;13.30;95.90;;;;;;5055240;28;20118;-70
2022/04/12 09:47:52;;;;;;;28.13;13.50;;;13.40;95.50;;;;;;5070550;28;20052;-70
2022/04/12 09:50:21;;;;;;;26.75;14.63;;;;;;;;;;5058553;28;20097;-70
2022/04/12 09:52:56;;;;;;;26.05;14.10;;;;;;;;;;5070265;28;20147;-71
2022/04/12 09:55:39;;;;;;;27.02;14.75;;;13.60;94.50;;;;;;5058532;28;20048;-70
2022/04/12 09:58:06;;;;;;;26.38;13.68;;;;;;;;;;5054822;28;20123;-77
2022/04/12 10:00:32;;;;;;;26.42;13.63;;;13.90;94.50;;;;;;5068350;28;20057;-70
2022/04/12 10:03:05;;;;;;;29.45;15.07;;;13.90;94.90;;;;;;5068414;28;20065;-70
2022/04/12 10:05:31;;;;;;;33.30;15.05;;;;;;;;;;5055404;28;20032;-70
2022/04/12 10:07:58;;;;;;;27.90;15.00;;;14.30;94.10;;;;;;5054342;28;20504;-70
2022/04/12 10:10:27;;;;;;;27.23;14.65;;;;;;;;;;5061187;28;20501;-70
2022/04/12 10:12:54;;;;;;;28.95;14.75;;;14.40;94.20;;;;;;5054446;28;20139;-71
2022/04/12 10:15:21;;;;;;;27.98;13.55;;;14.40;93.80;;;;;;5073317;28;20045;-71
2022/04/12 10:17:48;;;;;;;28.27;14.80;;;14.70;97.20;;;;;;5074531;28;20072;-71
2022/04/12 10:20:15;;;;;;;28.23;14.02;;;14.20;94.10;;;;;;5073799;28;20044;-71
2022/04/12 10:22:41;;;;;;;28.23;14.00;;;;;;;;;;5071560;28;20040;-71
2022/04/12 10:25:09;;;;;;;30.83;13.90;;;;;;;;;;5068318;28;20033;-72
2022/04/12 10:27:36;;;;;;;28.80;14.20;;;15.00;92.90;;;;;;5069833;28;20044;-72
2022/04/12 10:30:17;;;;;;;31.45;13.98;;;;;;;;;;5067991;28;20397;-72
2022/04/12 10:33:02;;;;;;;27.20;13.93;;;;;;;;;;5054363;28;20040;-72
2022/04/12 10:35:51;;;;;;;25.08;13.70;;;15.40;92.10;;;;;;5065758;28;20480;-72
2022/04/12 10:38:22;;;;;;;27.02;14.07;;;15.60;96.30;;;;;;5054096;28;20045;-72
2022/04/12 10:40:49;;;;;;;28.30;13.95;;;;;;;;;;5047996;28;20107;-72
2022/04/12 10:43:21;;;;;;;26.63;13.57;;;16.40;93.40;;;;;;5069804;28;20043;-72
2022/04/12 10:45:49;;;;;;;25.13;13.00;;;15.70;92.60;;;;;;5045116;28;20072;-72
2022/04/12 10:48:23;;;;;;;29.23;13.32;;;16.50;95.90;;;;;;5061726;28;20481;-72
2022/04/12 10:50:58;;;;;;;25.70;13.65;;;16.00;91.50;;;;;;5063119;28;20051;-72
2022/04/12 10:53:54;;;;;;;29.35;13.73;;;16.10;92.70;;;;;;5068248;28;20110;-72
2022/04/12 10:56:24;;;;;;;23.30;12.70;;;15.40;95.30;;;;;;5028536;28;20045;-72
2022/04/12 10:58:50;;;;;;;26.95;13.18;;;;;;;;;;5035239;28;20059;-72
2022/04/12 11:01:33;;;;;;;27.30;13.32;;;15.50;91.00;;;;;;5067080;28;20180;-72
2022/04/12 11:04:03;;;;;;;25.40;12.45;;;16.30;90.60;;;;;;5056435;28;20481;-72
2022/04/12 11:06:33;;;;;;;34.83;13.07;;;16.40;91.20;;;;;;5070002;28;20040;-72
2022/04/12 11:09:11;;;;;;;26.30;12.23;;;;;;;;;;5053190;28;20048;-72
2022/04/12 11:11:42;;;;;;;28.55;13.15;;;16.70;91.30;;;;;;5051362;28;20053;-73
2022/04/12 11:14:20;;;;;;;26.08;12.75;;;17.00;94.80;;;;;;5065967;28;20052;-73
2022/04/12 11:16:51;;;;;;;26.70;12.98;;;16.90;94.70;;;;;;5059836;28;20037;-73
2022/04/12 11:19:21;;;;;;;24.70;12.85;;;16.40;91.40;;;;;;5052499;28;20047;-73
2022/04/12 11:21:55;;;;;;;27.60;13.02;;;15.60;94.60;;;;;;5037140;28;20076;-73
2022/04/12 11:24:22;;;;;;;26.33;12.93;;;16.90;93.50;;;;;;5053814;28;20077;-73
2022/04/12 11:27:00;;;;;;;29.00;12.00;;;16.80;91.00;;;;;;5084048;28;20143;-73
2022/04/12 11:29:28;;;;;;;26.10;11.70;;;16.50;91.40;;;;;;5067388;28;22006;-73
2022/04/12 11:31:55;;;;;;;31.25;12.13;;;16.00;93.90;;;;;;5066923;28;20041;-72
2022/04/12 11:34:23;;;;;;;30.77;12.52;;;16.80;90.80;;;;;;5052241;28;20041;-71
2022/04/12 11:37:03;;;;;;;24.90;10.98;;;17.00;89.30;;;;;;5064555;28;20040;-70
2022/04/12 11:39:37;;;;;;;27.55;11.65;;;16.80;90.40;;;;;;5065090;28;20063;-71
2022/04/12 11:42:06;;;;;;;24.15;11.93;;;17.30;93.70;;;;;;5052049;28;20131;-71
2022/04/12 11:44:32;;;;;;;25.52;12.18;;;;;;;;;;5052080;28;20080;-71
2022/04/12 11:47:17;;;;;;;28.58;12.35;;;17.10;90.50;;;;;;5051632;28;20439;-71
2022/04/12 11:49:43;;;;;;;25.40;12.43;;;17.00;93.90;;;;;;5051229;28;20055;-71
2022/04/12 11:52:13;;;;;;;27.98;12.48;;;18.00;94.20;;;;;;5051975;28;20080;-71
2022/04/12 11:54:45;;;;;;;26.25;12.88;;;16.90;90.10;;;;;;5064700;28;20449;-71
2022/04/12 11:57:11;;;;;;;22.63;12.90;;;17.00;90.30;;;;;;5038776;28;20040;-71
2022/04/12 11:59:47;;;;;;;27.38;12.68;;;16.70;93.80;;;;;;5071804;28;20055;-71
2022/04/12 12:02:15;;;;;;;26.98;13.30;;;17.50;94.00;;;;;;5055253;28;20036;-71
2022/04/12 12:04:53;;;;;;;30.10;13.90;;;17.80;94.10;;;;;;5071713;28;20492;-71
2022/04/12 12:07:19;;;;;;;31.17;13.88;;;16.50;93.80;;;;;;5071403;28;20057;-71
2022/04/12 12:09:53;;;;;;;28.85;12.85;;;17.00;88.90;;;;;;5074542;28;20052;-71
2022/04/12 12:12:19;;;;;;;30.15;12.95;;;17.10;90.00;;;;;;5075706;28;20040;-71
2022/04/12 12:14:46;;;;;;;26.38;13.10;;;;;;;;;;5075659;28;20040;-71
2022/04/12 12:17:20;;;;;;;28.30;12.25;;;17.30;90.50;;;;;;5075646;28;20053;-71
2022/04/12 12:19:47;;;;;;;28.65;12.40;;;16.70;93.70;;;;;;5075390;28;20051;-71
2022/04/12 12:22:14;;;;;;;25.83;12.18;;;17.10;90.40;;;;;;5059151;28;20124;-71
2022/04/12 12:24:57;;;;;;;22.13;11.98;;;17.40;88.90;;;;;;5075483;28;20051;-71
2022/04/12 12:27:32;;;;;;;26.55;12.25;;;17.40;88.50;;;;;;5075606;28;20059;-71
2022/04/12 12:30:09;;;;;;;24.27;12.77;;;16.50;93.20;;;;;;5074523;28;20380;-71
2022/04/12 12:32:40;;;;;;;26.42;12.45;;;17.70;93.70;;;;;;5075498;28;20048;-71
2022/04/12 12:35:15;;;;;;;27.52;12.13;;;16.80;92.10;;;;;;5075152;28;20443;-71
2022/04/12 12:37:43;;;;;;;23.30;12.52;;;16.80;90.30;;;;;;5075034;28;20074;-71
2022/04/12 12:40:23;;;;;;;26.05;12.80;;;17.80;93.30;;;;;;5074779;28;20052;-71
2022/04/12 12:42:50;;;;;;;27.08;12.70;;;17.00;90.40;;;;;;5058606;28;20067;-71
2022/04/12 12:45:18;;;;;;;26.08;12.25;;;17.20;90.50;;;;;;5074958;28;20045;-71
2022/04/12 12:47:47;;;;;;;27.45;12.73;;;17.20;90.50;;;;;;5075273;28;20080;-71
2022/04/12 12:50:15;;;;;;;21.83;11.85;;;16.30;93.70;;;;;;5074930;28;20489;-71
2022/04/12 12:52:43;;;;;;;24.73;11.93;;;18.00;94.20;;;;;;5074810;28;20052;-71
2022/04/12 12:55:18;;;;;;;24.63;12.73;;;17.40;90.60;;;;;;5074832;28;20060;-71
2022/04/12 12:57:47;;;;;;;26.40;12.82;;;17.20;90.60;;;;;;5076502;28;20112;-71
2022/04/12 13:00:14;;;;;;;27.65;12.32;;;17.90;94.10;;;;;;5074738;28;20040;-71
2022/04/12 13:02:40;;;;;;;24.05;12.82;;;17.90;94.30;;;;;;5074688;28;20366;-71
2022/04/12 13:05:08;;;;;;;23.75;13.15;;;17.00;90.90;;;;;;5057932;28;20055;-71
2022/04/12 13:07:36;;;;;;;27.33;13.38;;;17.10;91.00;;;;;;5074391;28;20052;-71
2022/04/12 13:10:17;;;;;;;28.58;13.32;;;17.90;94.60;;;;;;5074558;28;20124;-70
2022/04/12 13:12:45;;;;;;;29.95;13.75;;;17.20;90.90;;;;;;5075929;28;20040;-71
2022/04/12 13:15:13;;;;;;;25.73;12.98;;;18.30;94.50;;;;;;5074724;28;20392;-71
2022/04/12 13:17:39;;;;;;;42.90;13.52;;;17.10;92.60;;;;;;5074489;28;20545;-71
2022/04/12 13:20:10;;;;;;;27.83;13.25;;;17.70;90.60;;;;;;5075170;28;20044;-71
2022/04/12 13:22:37;;;;;;;29.67;13.77;;;;;;;;;;5074699;28;20447;-71
2022/04/12 13:25:03;;;;;;;27.42;12.30;;;19.00;93.80;;;;;;5074568;28;20064;-71
2022/04/12 13:27:30;;;;;;;30.60;13.80;;;;;;;;;;5074332;28;20040;-71
2022/04/12 13:29:56;;;;;;;28.83;12.75;;;;;;;;;;5074714;28;20040;-71
2022/04/12 13:32:22;;;;;;;31.70;14.10;;;18.90;92.70;;;;;;5074300;28;20048;-71
2022/04/12 13:34:48;;;;;;;33.08;13.60;;;;;;;;;;5058079;28;20044;-71
2022/04/12 13:37:14;;;;;;;31.50;14.35;;;19.80;92.30;;;;;;5075486;28;20086;-71
2022/04/12 13:39:40;;;;;;;29.40;14.30;;;20.20;92.10;;;;;;5057523;28;20033;-72
2022/04/12 13:42:06;;;;;;;29.50;15.02;;;19.00;89.40;;;;;;5074090;28;20106;-72
2022/04/12 13:44:36;;;;;;;33.83;14.82;;;20.40;91.70;;;;;;5073910;28;20044;-72